sensor_id;sensor_type;location;lat;lon;timestamp;P1;durP1;ratioP1;P2;durP2;ratioP2
42948;SDS011;28587;46.794;23.594;2022-09-09T00:03:59;7.00;;;6.20;;
42948;SDS011;28587;46.794;23.594;2022-09-09T00:09:12;7.25;;;6.55;;
42948;SDS011;28587;46.794;23.594;2022-09-09T00:14:18;7.22;;;6.63;;
42948;SDS011;28587;46.794;23.594;2022-09-09T00:24:59;7.25;;;6.65;;
42948;SDS011;28587;46.794;23.594;2022-09-09T00:35:36;7.45;;;5.97;;
42948;SDS011;28587;46.794;23.594;2022-09-09T00:46:13;7.20;;;6.60;;
42948;SDS011;28587;46.794;23.594;2022-09-09T00:56:46;7.00;;;6.43;;
42948;SDS011;28587;46.794;23.594;2022-09-09T01:01:52;6.90;;;6.30;;
42948;SDS011;28587;46.794;23.594;2022-09-09T01:06:57;7.00;;;6.40;;
42948;SDS011;28587;46.794;23.594;2022-09-09T01:17:24;7.65;;;6.95;;
42948;SDS011;28587;46.794;23.594;2022-09-09T01:28:22;8.48;;;6.95;;
42948;SDS011;28587;46.794;23.594;2022-09-09T01:33:31;7.00;;;5.78;;
42948;SDS011;28587;46.794;23.594;2022-09-09T01:38:32;7.07;;;6.40;;
42948;SDS011;28587;46.794;23.594;2022-09-09T01:43:34;8.25;;;6.70;;
42948;SDS011;28587;46.794;23.594;2022-09-09T01:48:36;6.70;;;6.10;;
42948;SDS011;28587;46.794;23.594;2022-09-09T01:53:41;6.75;;;6.03;;
42948;SDS011;28587;46.794;23.594;2022-09-09T02:04:08;9.70;;;6.95;;
42948;SDS011;28587;46.794;23.594;2022-09-09T02:09:24;7.30;;;6.22;;
42948;SDS011;28587;46.794;23.594;2022-09-09T02:14:32;8.13;;;7.15;;
42948;SDS011;28587;46.794;23.594;2022-09-09T02:19:42;6.68;;;6.05;;
42948;SDS011;28587;46.794;23.594;2022-09-09T02:24:58;14.85;;;6.68;;
42948;SDS011;28587;46.794;23.594;2022-09-09T02:30:03;6.80;;;6.20;;
42948;SDS011;28587;46.794;23.594;2022-09-09T02:35:12;8.93;;;6.95;;
42948;SDS011;28587;46.794;23.594;2022-09-09T02:40:17;9.00;;;7.63;;
42948;SDS011;28587;46.794;23.594;2022-09-09T02:45:27;10.80;;;7.95;;
42948;SDS011;28587;46.794;23.594;2022-09-09T02:50:52;10.25;;;6.97;;
42948;SDS011;28587;46.794;23.594;2022-09-09T02:56:14;8.18;;;7.15;;
42948;SDS011;28587;46.794;23.594;2022-09-09T03:01:22;8.85;;;6.90;;
42948;SDS011;28587;46.794;23.594;2022-09-09T03:06:23;8.90;;;7.07;;
42948;SDS011;28587;46.794;23.594;2022-09-09T03:11:33;9.85;;;7.57;;
42948;SDS011;28587;46.794;23.594;2022-09-09T03:16:35;8.15;;;7.35;;
42948;SDS011;28587;46.794;23.594;2022-09-09T03:21:36;9.73;;;7.75;;
42948;SDS011;28587;46.794;23.594;2022-09-09T03:26:37;8.45;;;7.65;;
42948;SDS011;28587;46.794;23.594;2022-09-09T03:31:41;8.90;;;7.95;;
42948;SDS011;28587;46.794;23.594;2022-09-09T03:36:43;8.00;;;7.20;;
42948;SDS011;28587;46.794;23.594;2022-09-09T03:41:45;8.23;;;7.05;;
42948;SDS011;28587;46.794;23.594;2022-09-09T03:46:49;8.07;;;7.28;;
42948;SDS011;28587;46.794;23.594;2022-09-09T03:51:50;7.13;;;6.43;;
42948;SDS011;28587;46.794;23.594;2022-09-09T03:56:51;9.55;;;7.63;;
42948;SDS011;28587;46.794;23.594;2022-09-09T04:01:52;7.72;;;7.03;;
42948;SDS011;28587;46.794;23.594;2022-09-09T04:06:53;8.23;;;7.05;;
42948;SDS011;28587;46.794;23.594;2022-09-09T04:11:55;7.68;;;7.03;;
42948;SDS011;28587;46.794;23.594;2022-09-09T04:16:56;12.82;;;7.20;;
42948;SDS011;28587;46.794;23.594;2022-09-09T04:21:57;7.50;;;6.90;;
42948;SDS011;28587;46.794;23.594;2022-09-09T04:26:59;7.80;;;6.93;;
42948;SDS011;28587;46.794;23.594;2022-09-09T04:32:00;8.10;;;7.40;;
42948;SDS011;28587;46.794;23.594;2022-09-09T04:37:01;7.97;;;7.22;;
42948;SDS011;28587;46.794;23.594;2022-09-09T04:42:02;7.85;;;7.15;;
42948;SDS011;28587;46.794;23.594;2022-09-09T04:47:04;9.48;;;7.32;;
42948;SDS011;28587;46.794;23.594;2022-09-09T04:52:06;7.97;;;7.22;;
42948;SDS011;28587;46.794;23.594;2022-09-09T04:57:10;7.28;;;6.65;;
42948;SDS011;28587;46.794;23.594;2022-09-09T05:02:11;8.70;;;7.20;;
42948;SDS011;28587;46.794;23.594;2022-09-09T05:07:13;9.55;;;6.45;;
42948;SDS011;28587;46.794;23.594;2022-09-09T05:12:15;7.75;;;6.95;;
42948;SDS011;28587;46.794;23.594;2022-09-09T05:17:24;12.48;;;6.72;;
42948;SDS011;28587;46.794;23.594;2022-09-09T05:22:25;7.97;;;7.18;;
42948;SDS011;28587;46.794;23.594;2022-09-09T05:27:27;8.85;;;7.35;;
42948;SDS011;28587;46.794;23.594;2022-09-09T05:32:33;8.25;;;7.00;;
42948;SDS011;28587;46.794;23.594;2022-09-09T05:37:35;8.85;;;7.43;;
42948;SDS011;28587;46.794;23.594;2022-09-09T05:42:36;10.40;;;9.40;;
42948;SDS011;28587;46.794;23.594;2022-09-09T05:47:38;10.60;;;9.60;;
42948;SDS011;28587;46.794;23.594;2022-09-09T05:52:42;10.55;;;9.55;;
42948;SDS011;28587;46.794;23.594;2022-09-09T05:57:48;9.85;;;9.02;;
42948;SDS011;28587;46.794;23.594;2022-09-09T06:02:50;10.60;;;9.55;;
42948;SDS011;28587;46.794;23.594;2022-09-09T06:07:53;10.32;;;9.32;;
42948;SDS011;28587;46.794;23.594;2022-09-09T06:12:56;10.38;;;9.27;;
42948;SDS011;28587;46.794;23.594;2022-09-09T06:17:57;10.57;;;9.48;;
42948;SDS011;28587;46.794;23.594;2022-09-09T06:22:58;10.77;;;9.68;;
42948;SDS011;28587;46.794;23.594;2022-09-09T06:28:00;10.77;;;9.70;;
42948;SDS011;28587;46.794;23.594;2022-09-09T06:33:03;10.80;;;9.73;;
42948;SDS011;28587;46.794;23.594;2022-09-09T06:38:04;10.98;;;9.88;;
42948;SDS011;28587;46.794;23.594;2022-09-09T06:43:06;11.27;;;10.18;;
42948;SDS011;28587;46.794;23.594;2022-09-09T06:48:15;12.70;;;10.38;;
42948;SDS011;28587;46.794;23.594;2022-09-09T06:53:17;10.68;;;9.63;;
42948;SDS011;28587;46.794;23.594;2022-09-09T06:58:20;11.38;;;10.20;;
42948;SDS011;28587;46.794;23.594;2022-09-09T07:03:25;11.15;;;10.15;;
42948;SDS011;28587;46.794;23.594;2022-09-09T07:08:27;11.93;;;10.80;;
42948;SDS011;28587;46.794;23.594;2022-09-09T07:13:29;11.25;;;10.25;;
42948;SDS011;28587;46.794;23.594;2022-09-09T07:18:30;11.05;;;10.10;;
42948;SDS011;28587;46.794;23.594;2022-09-09T07:23:32;10.23;;;9.40;;
42948;SDS011;28587;46.794;23.594;2022-09-09T07:28:33;11.25;;;10.27;;
42948;SDS011;28587;46.794;23.594;2022-09-09T07:33:35;11.07;;;9.98;;
42948;SDS011;28587;46.794;23.594;2022-09-09T07:38:37;10.23;;;9.32;;
42948;SDS011;28587;46.794;23.594;2022-09-09T07:43:40;10.48;;;9.48;;
42948;SDS011;28587;46.794;23.594;2022-09-09T07:48:46;11.52;;;10.38;;
42948;SDS011;28587;46.794;23.594;2022-09-09T07:53:53;11.48;;;10.32;;
42948;SDS011;28587;46.794;23.594;2022-09-09T07:58:58;14.02;;;12.65;;
42948;SDS011;28587;46.794;23.594;2022-09-09T08:04:01;14.27;;;12.77;;
42948;SDS011;28587;46.794;23.594;2022-09-09T08:09:04;13.73;;;12.43;;
42948;SDS011;28587;46.794;23.594;2022-09-09T08:14:07;12.88;;;11.55;;
42948;SDS011;28587;46.794;23.594;2022-09-09T08:19:11;11.40;;;10.40;;
42948;SDS011;28587;46.794;23.594;2022-09-09T08:24:13;11.50;;;10.50;;
42948;SDS011;28587;46.794;23.594;2022-09-09T08:29:18;11.70;;;10.50;;
42948;SDS011;28587;46.794;23.594;2022-09-09T08:34:21;12.68;;;11.52;;
42948;SDS011;28587;46.794;23.594;2022-09-09T08:39:24;10.68;;;9.77;;
42948;SDS011;28587;46.794;23.594;2022-09-09T08:44:31;12.60;;;11.40;;
42948;SDS011;28587;46.794;23.594;2022-09-09T08:49:50;11.75;;;10.65;;
42948;SDS011;28587;46.794;23.594;2022-09-09T08:55:25;11.60;;;10.50;;
42948;SDS011;28587;46.794;23.594;2022-09-09T09:06:26;10.02;;;9.13;;
42948;SDS011;28587;46.794;23.594;2022-09-09T09:11:39;10.50;;;9.52;;
42948;SDS011;28587;46.794;23.594;2022-09-09T09:16:55;11.23;;;10.13;;
42948;SDS011;28587;46.794;23.594;2022-09-09T09:32:33;11.73;;;9.75;;
42948;SDS011;28587;46.794;23.594;2022-09-09T09:37:40;9.95;;;8.55;;
42948;SDS011;28587;46.794;23.594;2022-09-09T09:48:08;10.00;;;8.82;;
42948;SDS011;28587;46.794;23.594;2022-09-09T09:53:17;11.77;;;9.55;;
42948;SDS011;28587;46.794;23.594;2022-09-09T09:58:30;9.45;;;8.50;;
42948;SDS011;28587;46.794;23.594;2022-09-09T10:03:35;10.65;;;8.95;;
42948;SDS011;28587;46.794;23.594;2022-09-09T10:08:45;10.50;;;9.50;;
42948;SDS011;28587;46.794;23.594;2022-09-09T10:24:39;11.65;;;10.45;;
42948;SDS011;28587;46.794;23.594;2022-09-09T10:40:26;10.18;;;9.23;;
42948;SDS011;28587;46.794;23.594;2022-09-09T10:45:49;11.77;;;10.00;;
42948;SDS011;28587;46.794;23.594;2022-09-09T10:56:20;10.75;;;9.77;;
42948;SDS011;28587;46.794;23.594;2022-09-09T11:01:24;10.93;;;9.93;;
42948;SDS011;28587;46.794;23.594;2022-09-09T11:06:32;11.50;;;9.88;;
42948;SDS011;28587;46.794;23.594;2022-09-09T11:11:46;11.05;;;9.50;;
42948;SDS011;28587;46.794;23.594;2022-09-09T11:17:01;12.00;;;9.95;;
42948;SDS011;28587;46.794;23.594;2022-09-09T11:27:52;10.85;;;9.50;;
42948;SDS011;28587;46.794;23.594;2022-09-09T11:48:44;10.75;;;9.20;;
42948;SDS011;28587;46.794;23.594;2022-09-09T11:53:49;9.90;;;8.77;;
42948;SDS011;28587;46.794;23.594;2022-09-09T11:58:57;9.80;;;8.02;;
42948;SDS011;28587;46.794;23.594;2022-09-09T12:15:23;11.38;;;8.80;;
42948;SDS011;28587;46.794;23.594;2022-09-09T12:20:35;10.40;;;9.38;;
42948;SDS011;28587;46.794;23.594;2022-09-09T12:36:24;10.52;;;8.80;;
42948;SDS011;28587;46.794;23.594;2022-09-09T12:41:30;9.80;;;8.93;;
42948;SDS011;28587;46.794;23.594;2022-09-09T12:51:36;10.20;;;9.20;;
42948;SDS011;28587;46.794;23.594;2022-09-09T12:56:38;10.20;;;9.10;;
42948;SDS011;28587;46.794;23.594;2022-09-09T13:01:39;9.95;;;8.65;;
42948;SDS011;28587;46.794;23.594;2022-09-09T13:06:40;9.48;;;8.48;;
42948;SDS011;28587;46.794;23.594;2022-09-09T13:11:42;9.82;;;8.82;;
42948;SDS011;28587;46.794;23.594;2022-09-09T13:16:57;9.40;;;8.15;;
42948;SDS011;28587;46.794;23.594;2022-09-09T13:21:59;9.82;;;8.88;;
42948;SDS011;28587;46.794;23.594;2022-09-09T13:27:29;11.00;;;9.63;;
42948;SDS011;28587;46.794;23.594;2022-09-09T13:32:38;10.05;;;8.82;;
42948;SDS011;28587;46.794;23.594;2022-09-09T13:37:39;10.25;;;9.23;;
42948;SDS011;28587;46.794;23.594;2022-09-09T13:42:41;10.77;;;8.48;;
42948;SDS011;28587;46.794;23.594;2022-09-09T13:47:42;11.77;;;10.43;;
42948;SDS011;28587;46.794;23.594;2022-09-09T13:52:44;11.88;;;10.82;;
42948;SDS011;28587;46.794;23.594;2022-09-09T14:02:53;11.35;;;10.20;;
42948;SDS011;28587;46.794;23.594;2022-09-09T14:07:55;10.73;;;9.73;;
42948;SDS011;28587;46.794;23.594;2022-09-09T14:12:57;13.18;;;9.90;;
42948;SDS011;28587;46.794;23.594;2022-09-09T14:17:58;11.48;;;10.38;;
42948;SDS011;28587;46.794;23.594;2022-09-09T14:22:59;10.85;;;9.85;;
42948;SDS011;28587;46.794;23.594;2022-09-09T14:28:00;12.02;;;10.82;;
42948;SDS011;28587;46.794;23.594;2022-09-09T14:33:02;11.75;;;10.10;;
42948;SDS011;28587;46.794;23.594;2022-09-09T14:38:03;13.32;;;10.10;;
42948;SDS011;28587;46.794;23.594;2022-09-09T14:43:05;11.00;;;9.85;;
42948;SDS011;28587;46.794;23.594;2022-09-09T14:48:06;16.95;;;11.48;;
42948;SDS011;28587;46.794;23.594;2022-09-09T14:53:07;20.70;;;18.42;;
42948;SDS011;28587;46.794;23.594;2022-09-09T14:58:08;21.52;;;19.30;;
42948;SDS011;28587;46.794;23.594;2022-09-09T15:03:10;23.17;;;18.63;;
42948;SDS011;28587;46.794;23.594;2022-09-09T15:08:11;18.70;;;16.38;;
42948;SDS011;28587;46.794;23.594;2022-09-09T15:13:11;21.33;;;16.65;;
42948;SDS011;28587;46.794;23.594;2022-09-09T15:18:15;20.75;;;16.38;;
42948;SDS011;28587;46.794;23.594;2022-09-09T15:23:16;21.23;;;17.25;;
42948;SDS011;28587;46.794;23.594;2022-09-09T15:28:17;23.40;;;15.35;;
42948;SDS011;28587;46.794;23.594;2022-09-09T15:33:19;18.20;;;15.50;;
42948;SDS011;28587;46.794;23.594;2022-09-09T15:38:21;14.88;;;13.30;;
42948;SDS011;28587;46.794;23.594;2022-09-09T15:43:22;15.07;;;13.45;;
42948;SDS011;28587;46.794;23.594;2022-09-09T15:48:29;15.73;;;14.05;;
42948;SDS011;28587;46.794;23.594;2022-09-09T15:53:32;17.52;;;13.77;;
42948;SDS011;28587;46.794;23.594;2022-09-09T15:58:34;13.55;;;12.25;;
42948;SDS011;28587;46.794;23.594;2022-09-09T16:03:45;15.48;;;12.35;;
42948;SDS011;28587;46.794;23.594;2022-09-09T16:08:47;16.50;;;12.25;;
42948;SDS011;28587;46.794;23.594;2022-09-09T16:13:53;13.80;;;12.38;;
42948;SDS011;28587;46.794;23.594;2022-09-09T16:18:56;13.65;;;11.82;;
42948;SDS011;28587;46.794;23.594;2022-09-09T16:23:59;15.13;;;11.93;;
42948;SDS011;28587;46.794;23.594;2022-09-09T16:29:03;14.52;;;11.73;;
42948;SDS011;28587;46.794;23.594;2022-09-09T16:34:04;14.15;;;11.32;;
42948;SDS011;28587;46.794;23.594;2022-09-09T16:39:06;13.48;;;12.00;;
42948;SDS011;28587;46.794;23.594;2022-09-09T16:44:12;15.00;;;12.70;;
42948;SDS011;28587;46.794;23.594;2022-09-09T16:49:14;13.68;;;12.05;;
42948;SDS011;28587;46.794;23.594;2022-09-09T16:54:16;17.90;;;13.15;;
42948;SDS011;28587;46.794;23.594;2022-09-09T16:59:19;13.05;;;11.30;;
42948;SDS011;28587;46.794;23.594;2022-09-09T17:04:21;15.55;;;11.60;;
42948;SDS011;28587;46.794;23.594;2022-09-09T17:09:25;12.63;;;11.32;;
42948;SDS011;28587;46.794;23.594;2022-09-09T17:14:29;14.35;;;11.70;;
42948;SDS011;28587;46.794;23.594;2022-09-09T17:19:31;12.60;;;11.32;;
42948;SDS011;28587;46.794;23.594;2022-09-09T17:24:32;13.30;;;11.35;;
42948;SDS011;28587;46.794;23.594;2022-09-09T17:29:34;11.10;;;9.95;;
42948;SDS011;28587;46.794;23.594;2022-09-09T17:34:36;11.48;;;9.93;;
42948;SDS011;28587;46.794;23.594;2022-09-09T17:39:37;9.40;;;8.40;;
42948;SDS011;28587;46.794;23.594;2022-09-09T17:44:38;10.82;;;9.20;;
42948;SDS011;28587;46.794;23.594;2022-09-09T17:49:40;10.48;;;8.70;;
42948;SDS011;28587;46.794;23.594;2022-09-09T17:54:41;9.25;;;8.00;;
42948;SDS011;28587;46.794;23.594;2022-09-09T17:59:42;8.85;;;7.90;;
42948;SDS011;28587;46.794;23.594;2022-09-09T18:04:44;16.63;;;11.32;;
42948;SDS011;28587;46.794;23.594;2022-09-09T18:09:46;36.35;;;15.05;;
42948;SDS011;28587;46.794;23.594;2022-09-09T18:14:49;20.13;;;11.27;;
42948;SDS011;28587;46.794;23.594;2022-09-09T18:19:50;18.10;;;11.27;;
42948;SDS011;28587;46.794;23.594;2022-09-09T18:24:51;15.90;;;10.60;;
42948;SDS011;28587;46.794;23.594;2022-09-09T18:29:52;18.50;;;10.48;;
42948;SDS011;28587;46.794;23.594;2022-09-09T18:34:53;18.85;;;11.38;;
42948;SDS011;28587;46.794;23.594;2022-09-09T18:39:58;13.52;;;9.35;;
42948;SDS011;28587;46.794;23.594;2022-09-09T18:44:59;17.60;;;10.20;;
42948;SDS011;28587;46.794;23.594;2022-09-09T18:49:59;14.98;;;10.48;;
42948;SDS011;28587;46.794;23.594;2022-09-09T18:55:00;13.27;;;9.98;;
42948;SDS011;28587;46.794;23.594;2022-09-09T19:00:01;13.73;;;10.18;;
42948;SDS011;28587;46.794;23.594;2022-09-09T19:05:04;12.85;;;9.68;;
42948;SDS011;28587;46.794;23.594;2022-09-09T19:10:05;12.40;;;9.20;;
42948;SDS011;28587;46.794;23.594;2022-09-09T19:15:07;11.93;;;9.30;;
42948;SDS011;28587;46.794;23.594;2022-09-09T19:20:08;10.63;;;9.30;;
42948;SDS011;28587;46.794;23.594;2022-09-09T19:25:09;11.00;;;9.02;;
42948;SDS011;28587;46.794;23.594;2022-09-09T19:30:10;11.20;;;9.25;;
42948;SDS011;28587;46.794;23.594;2022-09-09T19:35:12;12.32;;;9.77;;
42948;SDS011;28587;46.794;23.594;2022-09-09T19:40:13;10.43;;;8.95;;
42948;SDS011;28587;46.794;23.594;2022-09-09T19:45:14;12.20;;;8.48;;
42948;SDS011;28587;46.794;23.594;2022-09-09T19:50:15;10.63;;;9.15;;
42948;SDS011;28587;46.794;23.594;2022-09-09T19:55:16;9.15;;;8.25;;
42948;SDS011;28587;46.794;23.594;2022-09-09T20:00:17;10.55;;;9.07;;
42948;SDS011;28587;46.794;23.594;2022-09-09T20:05:18;9.40;;;8.50;;
42948;SDS011;28587;46.794;23.594;2022-09-09T20:10:20;9.00;;;8.10;;
42948;SDS011;28587;46.794;23.594;2022-09-09T20:15:22;9.35;;;8.48;;
42948;SDS011;28587;46.794;23.594;2022-09-09T20:20:23;10.93;;;8.38;;
42948;SDS011;28587;46.794;23.594;2022-09-09T20:25:24;9.27;;;8.35;;
42948;SDS011;28587;46.794;23.594;2022-09-09T20:30:25;9.10;;;8.27;;
42948;SDS011;28587;46.794;23.594;2022-09-09T20:35:27;9.05;;;7.97;;
42948;SDS011;28587;46.794;23.594;2022-09-09T20:40:27;10.27;;;8.05;;
42948;SDS011;28587;46.794;23.594;2022-09-09T20:45:29;10.85;;;7.88;;
42948;SDS011;28587;46.794;23.594;2022-09-09T20:50:30;9.48;;;7.38;;
42948;SDS011;28587;46.794;23.594;2022-09-09T20:55:33;10.20;;;8.30;;
42948;SDS011;28587;46.794;23.594;2022-09-09T21:00:34;10.68;;;8.18;;
42948;SDS011;28587;46.794;23.594;2022-09-09T21:05:35;8.23;;;7.40;;
42948;SDS011;28587;46.794;23.594;2022-09-09T21:10:42;8.48;;;7.68;;
42948;SDS011;28587;46.794;23.594;2022-09-09T21:15:46;8.38;;;7.68;;
42948;SDS011;28587;46.794;23.594;2022-09-09T21:20:47;9.25;;;8.35;;
42948;SDS011;28587;46.794;23.594;2022-09-09T21:25:49;8.50;;;7.65;;
42948;SDS011;28587;46.794;23.594;2022-09-09T21:30:51;8.70;;;7.65;;
42948;SDS011;28587;46.794;23.594;2022-09-09T21:35:55;10.13;;;7.88;;
42948;SDS011;28587;46.794;23.594;2022-09-09T21:41:03;8.10;;;7.30;;
42948;SDS011;28587;46.794;23.594;2022-09-09T21:46:06;8.63;;;7.82;;
42948;SDS011;28587;46.794;23.594;2022-09-09T21:51:11;8.20;;;7.40;;
42948;SDS011;28587;46.794;23.594;2022-09-09T21:56:15;8.27;;;7.47;;
42948;SDS011;28587;46.794;23.594;2022-09-09T22:01:17;8.68;;;7.78;;
42948;SDS011;28587;46.794;23.594;2022-09-09T22:06:19;8.80;;;8.07;;
42948;SDS011;28587;46.794;23.594;2022-09-09T22:11:20;8.40;;;7.70;;
42948;SDS011;28587;46.794;23.594;2022-09-09T22:16:22;8.93;;;7.55;;
42948;SDS011;28587;46.794;23.594;2022-09-09T22:21:23;8.50;;;7.72;;
42948;SDS011;28587;46.794;23.594;2022-09-09T22:26:26;8.05;;;7.35;;
42948;SDS011;28587;46.794;23.594;2022-09-09T22:31:29;8.50;;;7.63;;
42948;SDS011;28587;46.794;23.594;2022-09-09T22:36:31;7.95;;;7.25;;
42948;SDS011;28587;46.794;23.594;2022-09-09T22:41:32;8.40;;;7.65;;
42948;SDS011;28587;46.794;23.594;2022-09-09T22:46:33;7.97;;;7.28;;
42948;SDS011;28587;46.794;23.594;2022-09-09T22:51:34;7.60;;;6.88;;
42948;SDS011;28587;46.794;23.594;2022-09-09T22:56:34;8.70;;;7.55;;
42948;SDS011;28587;46.794;23.594;2022-09-09T23:01:35;7.97;;;7.25;;
42948;SDS011;28587;46.794;23.594;2022-09-09T23:06:37;7.78;;;7.07;;
42948;SDS011;28587;46.794;23.594;2022-09-09T23:11:40;8.20;;;7.35;;
42948;SDS011;28587;46.794;23.594;2022-09-09T23:16:44;7.30;;;6.70;;
42948;SDS011;28587;46.794;23.594;2022-09-09T23:21:45;8.40;;;7.55;;
42948;SDS011;28587;46.794;23.594;2022-09-09T23:26:47;8.93;;;8.02;;
42948;SDS011;28587;46.794;23.594;2022-09-09T23:31:48;8.13;;;7.43;;
42948;SDS011;28587;46.794;23.594;2022-09-09T23:36:49;7.60;;;7.00;;
42948;SDS011;28587;46.794;23.594;2022-09-09T23:41:50;8.15;;;7.35;;
42948;SDS011;28587;46.794;23.594;2022-09-09T23:46:51;7.57;;;6.97;;
42948;SDS011;28587;46.794;23.594;2022-09-09T23:51:52;7.30;;;6.70;;
42948;SDS011;28587;46.794;23.594;2022-09-09T23:56:53;7.90;;;7.30;;
